createdAt,value
2019-05-30T00:23:19.642Z,2.8
2019-05-30T00:24:19.653Z,3.1
2019-05-30T00:25:19.671Z,3.5
2019-05-30T00:29:19.806Z,3.4
2019-05-30T00:30:24.189Z,4.2
2019-05-30T00:31:22.659Z,3.2
2019-05-30T00:32:20.034Z,2.4
2019-05-30T00:33:20.074Z,2.8
2019-05-30T00:34:20.052Z,4.5
2019-05-30T00:35:20.205Z,4.1
2019-05-30T00:38:20.372Z,2.7
2019-05-30T00:39:20.385Z,3.1
2019-05-30T00:40:20.379Z,4.6
2019-05-30T00:41:20.549Z,4.5
2019-05-30T00:42:20.538Z,1.8
2019-05-30T00:43:20.740Z,5.7
2019-05-30T00:44:20.756Z,2.3
2019-05-30T00:45:21.459Z,2.7
2019-05-30T00:53:21.361Z,3.3
2019-05-30T00:54:22.401Z,2.2
2019-05-30T00:55:21.395Z,3
2019-05-30T00:56:21.501Z,2.6
2019-05-30T00:57:21.490Z,3.2
2019-05-30T00:58:21.477Z,4.2
2019-05-30T00:59:21.669Z,5.3
2019-05-30T01:00:21.664Z,2.2
2019-05-30T01:01:21.636Z,2.9
2019-05-30T01:02:21.773Z,3.6
2019-05-30T01:09:22.092Z,3.3
2019-05-30T01:10:22.192Z,4.4
2019-05-30T01:11:22.198Z,3.7
2019-05-30T01:12:22.310Z,3.2
2019-05-30T01:18:22.496Z,2.6
2019-05-30T01:19:22.483Z,2
2019-05-30T01:23:22.760Z,2.5
2019-05-30T01:24:22.790Z,2.3
2019-05-30T01:25:22.798Z,2.3
2019-05-30T01:55:24.905Z,2.2
2019-05-30T01:56:24.925Z,2.5
2019-05-30T01:59:25.232Z,2.1
2019-05-30T02:00:25.276Z,3.1
2019-05-30T02:01:25.784Z,2.5
2019-05-30T02:02:25.381Z,2
2019-05-30T02:03:25.356Z,2.8
2019-05-30T02:04:25.544Z,3.1
2019-05-30T02:05:25.478Z,1.9
2019-05-30T02:06:25.643Z,4.2
2019-05-30T02:10:25.886Z,2.4
2019-05-30T02:11:26.085Z,3
2019-05-30T02:12:26.069Z,2.2
2019-05-30T02:13:26.222Z,3.8
2019-05-30T02:14:26.368Z,3.4
2019-05-30T02:30:28.217Z,3
2019-05-30T02:31:38.791Z,4
2019-05-30T02:32:29.218Z,2.4
2019-05-30T02:33:28.301Z,2.3
2019-05-30T02:34:28.375Z,3.4
2019-05-30T02:35:28.439Z,2.2
2019-05-30T02:36:28.502Z,3
2019-05-30T02:40:28.671Z,3.3
2019-05-30T02:41:28.696Z,3.3
2019-05-30T02:42:28.797Z,3.1
2019-05-30T02:43:28.844Z,1.9
2019-05-30T02:44:28.904Z,3
2019-05-30T02:45:28.954Z,3.7
2019-05-30T02:46:29.021Z,3.7
2019-05-30T02:50:29.350Z,3.8
2019-05-30T02:55:29.709Z,3.4
2019-05-30T02:59:29.972Z,2.1
2019-05-30T03:00:30.055Z,3
2019-05-30T03:01:30.110Z,4.7
2019-05-30T03:02:30.213Z,4.5
2019-05-30T03:03:30.265Z,2.9
2019-05-30T03:04:30.312Z,2.7
2019-05-30T03:05:30.375Z,3.5
2019-05-30T03:06:30.517Z,2.5
2019-05-30T03:23:31.712Z,2.9
2019-05-30T03:24:31.859Z,3.3
2019-05-30T03:25:31.918Z,3.5
2019-05-30T03:26:31.992Z,3.4
2019-05-30T03:30:32.285Z,2
2019-05-30T03:31:32.337Z,3
2019-05-30T03:33:03.187Z,2.1
2019-05-30T03:33:39.905Z,2.6
2019-05-30T03:34:33.518Z,5.1
2019-05-30T03:35:40.870Z,3.5
2019-05-30T03:36:33.619Z,3.7
2019-05-30T03:37:32.674Z,2.9
2019-05-30T03:38:32.861Z,3.9
2019-05-30T03:39:32.788Z,2.7
2019-05-30T03:40:32.843Z,2.9
2019-05-30T03:41:32.952Z,3.7
2019-05-30T03:42:33.083Z,2
2019-05-30T03:43:33.188Z,3
2019-05-30T03:44:33.290Z,3.7
2019-05-30T03:50:33.673Z,4.4
2019-05-30T03:51:33.788Z,2.7
2019-05-30T03:52:33.961Z,2.5
2019-05-30T03:53:33.849Z,4
2019-05-30T03:54:33.995Z,3.7
2019-05-30T03:55:33.943Z,3.2
2019-05-30T03:56:34.050Z,3.3
2019-05-30T04:11:35.354Z,3.7
2019-05-30T04:12:35.527Z,3.8
2019-05-30T04:21:36.207Z,4.6
2019-05-30T04:22:36.295Z,14.3
2019-05-30T04:26:36.635Z,3.7
2019-05-30T04:27:36.735Z,2.8
2019-05-30T04:41:37.686Z,2.6
2019-05-30T04:42:37.719Z,3
2019-05-30T04:50:37.879Z,2.3
2019-05-30T04:51:37.909Z,2.8
2019-05-30T04:55:38.047Z,3.3
2019-05-30T04:56:38.153Z,5.7
2019-05-30T04:57:38.235Z,2.1
2019-05-30T05:06:39.053Z,2.4
2019-05-30T08:32:46.122Z,3.7
2019-05-30T09:50:31.096Z,2.8
2019-05-30T10:15:46.849Z,4.5
2019-05-30T10:16:50.232Z,4.5
2019-05-30T10:18:46.114Z,4.8
2019-05-30T10:19:47.133Z,4.7
2019-05-30T10:20:47.388Z,4.8
2019-05-30T10:21:47.205Z,4.2
2019-05-30T10:22:46.982Z,5.8
2019-05-30T10:23:47.483Z,3.2
2019-05-30T10:24:47.259Z,4.1
2019-05-30T10:25:47.870Z,4.4
2019-05-30T10:27:47.961Z,4.1
2019-05-30T10:29:47.561Z,3
2019-05-30T10:31:46.528Z,3.6
2019-05-30T10:32:47.144Z,4.5
2019-05-30T10:34:47.848Z,4.3
2019-05-30T11:04:48.858Z,6.3
2019-05-30T11:05:48.739Z,4.6
2019-05-30T11:07:02.538Z,4.9
2019-05-30T11:07:56.007Z,4.5
2019-05-30T11:08:49.125Z,5.6
2019-05-30T11:09:48.655Z,5.6
2019-05-30T11:10:48.480Z,4
2019-05-30T11:11:48.583Z,4.4
2019-05-30T11:12:48.346Z,4.5
2019-05-30T11:14:48.545Z,4.7
2019-05-30T11:16:48.820Z,6.1
2019-05-30T11:19:48.229Z,5.9
2019-05-30T11:20:48.349Z,6.8
2019-05-30T11:21:48.323Z,6.4
2019-05-30T13:54:54.265Z,12.1
2019-05-30T13:55:54.285Z,12.9
2019-05-30T13:56:54.304Z,12.5
2019-05-30T13:57:54.359Z,13.8
2019-05-30T13:58:54.375Z,12.7
2019-05-30T13:59:54.412Z,14.1
2019-05-30T14:00:54.481Z,14.7
2019-05-30T14:01:54.508Z,14.1
2019-05-30T14:02:54.554Z,13.7
2019-05-30T14:03:54.561Z,15.6
2019-05-30T14:04:54.567Z,14.5
2019-05-30T14:05:54.575Z,13.5
2019-05-30T14:06:54.629Z,14
2019-05-30T14:07:54.669Z,13.3
2019-05-30T14:08:54.683Z,13.9
2019-05-30T14:09:54.712Z,14
2019-05-30T14:10:54.753Z,13.4
2019-05-30T14:11:54.786Z,14.2
2019-05-30T14:12:54.829Z,13.9
2019-05-30T14:13:54.849Z,12.7
2019-05-30T14:14:54.884Z,13.3
2019-05-30T14:15:54.912Z,13.2
2019-05-30T14:16:54.935Z,13.2
2019-05-30T14:17:55.009Z,12.9
2019-05-30T14:18:55.049Z,12.3
2019-05-30T14:19:55.049Z,12.5
2019-05-30T14:20:55.075Z,11.2
2019-05-30T14:21:55.119Z,12.5
2019-05-30T14:22:55.164Z,12.1
2019-05-30T14:23:55.234Z,11.8
2019-05-30T14:24:55.254Z,12.8
2019-05-30T14:25:55.261Z,12.4
2019-05-30T14:26:55.290Z,11.8
2019-05-30T14:27:55.308Z,13.4
2019-05-30T14:28:55.360Z,12.3
2019-05-30T14:29:55.366Z,11.8
2019-05-30T14:30:55.388Z,13.7
2019-05-30T14:31:55.411Z,11.6
2019-05-30T14:32:55.443Z,12.2
2019-05-30T14:33:55.493Z,12.2
2019-05-30T14:34:55.548Z,11.9
2019-05-30T14:35:55.575Z,12
2019-05-30T14:36:55.583Z,12.7
2019-05-30T14:37:55.605Z,11.6
2019-05-30T14:38:58.586Z,10.9
2019-05-30T14:39:56.653Z,10.9
2019-05-30T14:40:55.672Z,13.2
2019-05-30T14:41:55.722Z,10.8
2019-05-30T14:42:55.748Z,10.7
2019-05-30T14:43:55.895Z,11.1
2019-05-30T14:44:55.901Z,10.4
2019-05-30T14:45:55.903Z,11.1
2019-05-30T14:46:55.933Z,10.6
2019-05-30T14:47:55.964Z,11.6
2019-05-30T14:48:56.053Z,12.3
2019-05-30T14:49:56.049Z,11.4
2019-05-30T14:50:56.078Z,12
2019-05-30T14:51:56.105Z,11.3
2019-05-30T14:52:56.111Z,12
2019-05-30T14:53:56.203Z,12.2
2019-05-30T14:54:56.219Z,12.2
2019-05-30T14:55:56.251Z,12
2019-05-30T14:56:57.275Z,12.2
2019-05-30T14:57:58.194Z,12.3
2019-05-30T14:58:57.353Z,13.3
2019-05-30T14:59:56.405Z,14.3
2019-05-30T15:00:56.416Z,11.7
2019-05-30T15:01:56.442Z,12.1
2019-05-30T15:02:56.502Z,13
2019-05-30T15:03:56.515Z,11.5
2019-05-30T15:04:56.559Z,10.9
2019-05-30T15:05:56.585Z,12.2
2019-05-30T15:06:56.634Z,11.6
2019-05-30T15:07:56.657Z,10.7
2019-05-30T15:08:56.679Z,10.6
2019-05-30T15:09:56.708Z,10.4
2019-05-30T15:10:56.744Z,9.7
2019-05-30T15:11:56.771Z,9.3
2019-05-30T15:12:56.784Z,9.3
2019-05-30T15:13:56.803Z,10.2
2019-05-30T15:14:56.867Z,9.6
2019-05-30T15:15:57.266Z,10.2
2019-05-30T15:16:56.923Z,9.2
2019-05-30T15:17:56.927Z,9
2019-05-30T15:18:56.930Z,9.2
2019-05-30T15:19:57.181Z,8.7
2019-05-30T15:20:57.049Z,8.5
2019-05-30T15:21:57.070Z,8.7
2019-05-30T15:22:57.106Z,9.4
2019-05-30T15:23:57.139Z,8.2
2019-05-30T15:24:57.201Z,8.1
2019-05-30T15:25:57.250Z,7.4
2019-05-30T15:26:57.301Z,7.7
2019-05-30T15:27:57.325Z,7.9
2019-05-30T15:28:57.357Z,8.9
2019-05-30T15:29:57.451Z,7.7
2019-05-30T15:30:57.503Z,7.7
2019-05-30T15:31:57.531Z,8.3
2019-05-30T15:32:57.578Z,8.2
2019-05-30T15:33:57.590Z,8.6
2019-05-30T15:34:57.728Z,8.8
2019-05-30T15:35:57.780Z,8.9
2019-05-30T15:36:57.782Z,9.4
2019-05-30T15:37:57.820Z,8.8
2019-05-30T15:38:57.855Z,9.5
2019-05-30T15:39:57.876Z,9.2
2019-05-30T15:40:57.922Z,9.7
2019-05-30T15:41:57.966Z,9.6
2019-05-30T15:42:57.952Z,9.7
2019-05-30T15:43:58.160Z,9.4
2019-05-30T15:44:58.168Z,10.4
2019-05-30T15:45:58.222Z,9.9
2019-05-30T15:46:58.255Z,9.8
2019-05-30T15:47:58.267Z,9.5
2019-05-30T15:48:58.289Z,10
2019-05-30T15:49:58.314Z,9.4
2019-05-30T15:50:58.344Z,9
2019-05-30T15:51:58.360Z,8.8
2019-05-30T15:52:58.363Z,9.2
2019-05-30T15:53:58.380Z,9.6
2019-05-30T15:54:58.409Z,10
2019-05-30T15:55:58.497Z,9.8
2019-05-30T15:56:58.500Z,10.2
2019-05-30T15:57:58.506Z,9.9
2019-05-30T15:58:58.525Z,10.2
2019-05-30T15:59:58.534Z,11.2
2019-05-30T16:00:58.627Z,10.6
2019-05-30T16:01:58.644Z,11
2019-05-30T16:02:58.878Z,10.3
2019-05-30T16:03:58.835Z,10.7
2019-05-30T16:04:58.842Z,10.1
2019-05-30T16:05:58.938Z,9.7
2019-05-30T16:06:58.946Z,10
2019-05-30T16:07:58.970Z,10.2
2019-05-30T16:08:58.973Z,10.6
2019-05-30T16:09:59.003Z,10.2
2019-05-30T16:10:59.047Z,9.4
2019-05-30T16:16:59.225Z,10.3
2019-05-30T16:17:59.247Z,9.8
2019-05-30T16:19:14.943Z,10.7
2019-05-30T16:20:00.289Z,10.1
2019-05-30T16:20:59.327Z,9.8
2019-05-30T18:06:03.559Z,5.8
2019-05-30T18:07:03.607Z,6
2019-05-30T18:08:03.607Z,5.3
2019-05-30T18:28:15.755Z,5.6
2019-05-30T18:30:12.393Z,5.1
2019-05-30T18:33:11.335Z,5.2
2019-05-30T19:27:11.075Z,5.3
2019-05-30T19:37:11.087Z,7.3
2019-05-30T19:38:11.145Z,7.9
2019-05-30T19:39:11.221Z,4.9
2019-05-30T19:40:11.324Z,5.1
2019-05-30T19:41:11.432Z,6.5
2019-05-30T19:42:11.605Z,4.6
2019-05-30T19:43:11.537Z,5.1
2019-05-30T19:44:11.637Z,6
2019-05-30T19:45:11.713Z,4.3
2019-05-30T19:46:13.251Z,3.9
2019-05-30T19:47:12.924Z,4.1
2019-05-30T19:48:12.018Z,5
2019-05-30T19:49:12.119Z,5.2
2019-05-30T19:50:12.192Z,6.3
2019-05-30T19:51:12.272Z,8.6
2019-05-30T19:52:12.372Z,5.5
2019-05-30T19:53:12.474Z,6.2
2019-05-30T19:54:12.570Z,8.6
2019-05-30T19:55:12.668Z,9.1
2019-05-30T19:56:12.748Z,6.1
2019-05-30T19:57:12.846Z,12.6
2019-05-30T19:58:12.957Z,5.7
2019-05-30T19:59:13.039Z,4.6
2019-05-30T20:00:13.147Z,4.4
2019-05-30T22:06:21.395Z,5.4
2019-05-30T22:11:20.421Z,6.1
2019-05-30T22:12:20.443Z,6.1
2019-05-30T22:22:20.745Z,5.7
2019-05-30T22:23:20.757Z,6.7
2019-05-30T22:24:20.782Z,5.3
2019-05-30T22:25:20.772Z,4.9
2019-05-30T22:34:21.075Z,4.9
2019-05-30T22:35:21.071Z,5.1
2019-05-30T22:36:21.264Z,4.7
2019-05-30T22:42:21.500Z,4.7
2019-05-30T22:43:25.038Z,4.5
2019-05-30T22:44:22.598Z,4.7
2019-05-30T22:45:21.605Z,4.1
2019-05-30T22:46:21.609Z,4.9
2019-05-30T22:52:21.703Z,5.4
2019-05-30T22:53:21.743Z,4.5
2019-05-30T22:54:21.779Z,5.8
2019-05-30T22:55:21.773Z,5
2019-05-30T22:56:21.781Z,3.9
2019-05-30T23:02:22.165Z,3.9
2019-05-30T23:03:22.185Z,3.6
2019-05-30T23:04:22.170Z,4.1
2019-05-30T23:05:22.349Z,5.1
2019-05-30T23:06:22.335Z,4.6
2019-05-30T23:12:22.424Z,4.6
2019-05-30T23:13:22.479Z,4.1
2019-05-30T23:14:22.523Z,5.2
2019-05-30T23:15:22.546Z,7.1
